This is the latest recevied weather packets stored in our database for station/object TAPIOLA. If no packets are shown the sender has not sent any weather packets the latest 10 day(s).
| Time | Temp. | Humidity | Pressure | Rain* | Wind** | Luminosity | Snow |
|---|---|---|---|---|---|---|---|
| 1777325200 | 3.33° C | 53% | 1016.3 hPa | 0 mm | - | - | - |
| 1777324001 | 3.33° C | 53% | 1016.1 hPa | 0 mm | - | - | - |
| 1777322800 | 3.33° C | 55% | 1016.2 hPa | 0 mm | - | - | - |
| 1777321601 | 3.33° C | 57% | 1015.9 hPa | 0 mm | - | - | - |
| 1777320400 | 3.33° C | 64% | 1015.8 hPa | 0 mm | - | - | - |
| 1777319200 | 3.33° C | 67% | 1015.8 hPa | 0 mm | - | - | - |
| 1777318000 | 3.33° C | 65% | 1015.7 hPa | 0 mm | - | - | - |
| 1777316800 | 3.89° C | 64% | 1015.6 hPa | 0 mm | - | - | - |
| 1777315600 | 3.89° C | 63% | 1015.8 hPa | 0 mm | - | - | - |
| 1777314400 | 4.44° C | 60% | 1015.7 hPa | 0 mm | - | - | - |
| 1777313199 | 4.44° C | 58% | 1015.3 hPa | 0 mm | - | - | - |
| 1777312000 | 5° C | 56% | 1015.1 hPa | 0 mm | - | - | - |
| 1777310799 | 5° C | 55% | 1015 hPa | 0 mm | - | - | - |
| 1777309599 | 6.11° C | 50% | 1015.1 hPa | 0 mm | - | - | - |
| 1777308399 | 6.11° C | 46% | 1014.5 hPa | 0 mm | - | - | - |
| 1777307199 | 6.67° C | 43% | 1014.4 hPa | 0 mm | - | - | - |
| 1777305999 | 6.67° C | 41% | 1014.1 hPa | 0 mm | - | - | - |
| 1777304799 | 7.22° C | 40% | 1014 hPa | 0 mm | - | - | - |
| 1777303599 | 6.67° C | 43% | 1014 hPa | 0 mm | - | - | - |
| 1777302399 | 7.22° C | 38% | 1013.8 hPa | 0 mm | - | - | - |
| 1777301199 | 6.67° C | 39% | 1013.9 hPa | 0 mm | - | - | - |
| 1777299999 | 6.67° C | 38% | 1013.8 hPa | 0 mm | - | - | - |
| 1777298799 | 7.78° C | 33% | 1013.5 hPa | 0 mm | - | - | - |
| 1777297598 | 8.89° C | 29% | 1013.4 hPa | 0 mm | - | - | - |
| 1777296398 | 8.89° C | 29% | 1013.3 hPa | 0 mm | - | - | - |
* Rain latest hour (hover to see other rain measurements)
** Current wind speed in m/s (hover to see current wind gust speed)